<?xml version="1.0" encoding="UTF-8" standalone="no" ?>
<gpx xmlns="http://www.topografix.com/GPX/1/1" xmlns:xsi="http://www.w3.org/2001/XMLSchema-instance" xsi:schemaLocation="http://www.topografix.com/GPX/1/1 http://www.topografix.com/GPX/1/1/gpx.xsd" version="1.1" creator="VisuGPX - https://www.visugpx.com">
  <metadata>
    <name>BelleIsleEnTerre_LocEnvel_CoatAnNoz</name>
    <desc><![CDATA[gnerando idor: 9342869_9342887]]></desc>
  </metadata>
  <trk>
    <name><![CDATA[BIET_LocEnvel_CoatAnNozReco_19.4km-9342869]]></name>
    <extensions>
      <line xmlns="http://www.topografix.com/GPX/gpx_style/0/2">
        <color>0000FF</color>
        <width>4</width>
      </line>
    </extensions>
    <trkseg>
      <trkpt lat="48.54616" lon="-3.39579">
        <ele>91</ele>
        <time>2023-10-30T17:39:44Z</time>
      </trkpt>
      <trkpt lat="48.54585" lon="-3.39582">
        <ele>90</ele>
        <time>2023-10-30T17:40:25Z</time>
      </trkpt>
      <trkpt lat="48.54589" lon="-3.39579">
        <ele>90</ele>
        <time>2023-10-30T17:40:31Z</time>
      </trkpt>
      <trkpt lat="48.54566" lon="-3.39557">
        <ele>91</ele>
        <time>2023-10-30T17:41:08Z</time>
      </trkpt>
      <trkpt lat="48.54537" lon="-3.3956">
        <ele>92</ele>
        <time>2023-10-30T17:41:47Z</time>
      </trkpt>
      <trkpt lat="48.54524" lon="-3.3959">
        <ele>93</ele>
        <time>2023-10-30T17:42:18Z</time>
      </trkpt>
      <trkpt lat="48.54519" lon="-3.39587">
        <ele>93</ele>
        <time>2023-10-30T17:42:25Z</time>
      </trkpt>
      <trkpt lat="48.54471" lon="-3.39587">
        <ele>94</ele>
        <time>2023-10-30T17:43:29Z</time>
      </trkpt>
      <trkpt lat="48.54459" lon="-3.3961">
        <ele>94</ele>
        <time>2023-10-30T17:43:55Z</time>
      </trkpt>
      <trkpt lat="48.54415" lon="-3.39615">
        <ele>94</ele>
        <time>2023-10-30T17:44:54Z</time>
      </trkpt>
      <trkpt lat="48.54411" lon="-3.3976">
        <ele>95</ele>
        <time>2023-10-30T17:47:02Z</time>
      </trkpt>
      <trkpt lat="48.5432" lon="-3.39768">
        <ele>97</ele>
        <time>2023-10-30T17:49:04Z</time>
      </trkpt>
      <trkpt lat="48.54263" lon="-3.39799">
        <ele>101</ele>
        <time>2023-10-30T17:50:25Z</time>
      </trkpt>
      <trkpt lat="48.54235" lon="-3.39788">
        <ele>100</ele>
        <time>2023-10-30T17:51:04Z</time>
      </trkpt>
      <trkpt lat="48.54208" lon="-3.39789">
        <ele>101</ele>
        <time>2023-10-30T17:51:40Z</time>
      </trkpt>
      <trkpt lat="48.54173" lon="-3.39805">
        <ele>104</ele>
        <time>2023-10-30T17:52:28Z</time>
      </trkpt>
      <trkpt lat="48.54119" lon="-3.39782">
        <ele>102</ele>
        <time>2023-10-30T17:53:43Z</time>
      </trkpt>
      <trkpt lat="48.54083" lon="-3.39779">
        <ele>102</ele>
        <time>2023-10-30T17:54:31Z</time>
      </trkpt>
      <trkpt lat="48.54054" lon="-3.39791">
        <ele>104</ele>
        <time>2023-10-30T17:55:11Z</time>
      </trkpt>
      <trkpt lat="48.54014" lon="-3.39779">
        <ele>102</ele>
        <time>2023-10-30T17:56:06Z</time>
      </trkpt>
      <trkpt lat="48.53987" lon="-3.39783">
        <ele>102</ele>
        <time>2023-10-30T17:56:42Z</time>
      </trkpt>
      <trkpt lat="48.5396" lon="-3.398">
        <ele>102</ele>
        <time>2023-10-30T17:57:21Z</time>
      </trkpt>
      <trkpt lat="48.53924" lon="-3.39841">
        <ele>101</ele>
        <time>2023-10-30T17:58:21Z</time>
      </trkpt>
      <trkpt lat="48.53886" lon="-3.39929">
        <ele>113</ele>
        <time>2023-10-30T17:59:54Z</time>
      </trkpt>
      <trkpt lat="48.53852" lon="-3.39975">
        <ele>116</ele>
        <time>2023-10-30T18:00:55Z</time>
      </trkpt>
      <trkpt lat="48.53813" lon="-3.39966">
        <ele>119</ele>
        <time>2023-10-30T18:01:48Z</time>
      </trkpt>
      <trkpt lat="48.53792" lon="-3.39979">
        <ele>122</ele>
        <time>2023-10-30T18:02:18Z</time>
      </trkpt>
      <trkpt lat="48.53787" lon="-3.40061">
        <ele>124</ele>
        <time>2023-10-30T18:03:31Z</time>
      </trkpt>
      <trkpt lat="48.53767" lon="-3.4012">
        <ele>129</ele>
        <time>2023-10-30T18:04:29Z</time>
      </trkpt>
      <trkpt lat="48.53714" lon="-3.4008">
        <ele>135</ele>
        <time>2023-10-30T18:05:48Z</time>
      </trkpt>
      <trkpt lat="48.53652" lon="-3.40174">
        <ele>141</ele>
        <time>2023-10-30T18:07:46Z</time>
      </trkpt>
      <trkpt lat="48.53587" lon="-3.40089">
        <ele>144</ele>
        <time>2023-10-30T18:09:40Z</time>
      </trkpt>
      <trkpt lat="48.53538" lon="-3.40156">
        <ele>147</ele>
        <time>2023-10-30T18:11:09Z</time>
      </trkpt>
      <trkpt lat="48.53484" lon="-3.40233">
        <ele>150</ele>
        <time>2023-10-30T18:12:48Z</time>
      </trkpt>
      <trkpt lat="48.53414" lon="-3.40196">
        <ele>151</ele>
        <time>2023-10-30T18:14:27Z</time>
      </trkpt>
      <trkpt lat="48.53375" lon="-3.40135">
        <ele>152</ele>
        <time>2023-10-30T18:15:42Z</time>
      </trkpt>
      <trkpt lat="48.53346" lon="-3.40161">
        <ele>153</ele>
        <time>2023-10-30T18:16:27Z</time>
      </trkpt>
      <trkpt lat="48.53312" lon="-3.40176">
        <ele>155</ele>
        <time>2023-10-30T18:17:14Z</time>
      </trkpt>
      <trkpt lat="48.53274" lon="-3.40155">
        <ele>156</ele>
        <time>2023-10-30T18:18:08Z</time>
      </trkpt>
      <trkpt lat="48.53211" lon="-3.40096">
        <ele>158</ele>
        <time>2023-10-30T18:19:47Z</time>
      </trkpt>
      <trkpt lat="48.53147" lon="-3.40042">
        <ele>158</ele>
        <time>2023-10-30T18:21:25Z</time>
      </trkpt>
      <trkpt lat="48.53127" lon="-3.40034">
        <ele>157</ele>
        <time>2023-10-30T18:21:52Z</time>
      </trkpt>
      <trkpt lat="48.53106" lon="-3.40048">
        <ele>156</ele>
        <time>2023-10-30T18:22:23Z</time>
      </trkpt>
      <trkpt lat="48.5308" lon="-3.4">
        <ele>154</ele>
        <time>2023-10-30T18:23:18Z</time>
      </trkpt>
      <trkpt lat="48.53012" lon="-3.39961">
        <ele>146</ele>
        <time>2023-10-30T18:24:55Z</time>
      </trkpt>
      <trkpt lat="48.52906" lon="-3.39893">
        <ele>137</ele>
        <time>2023-10-30T18:27:28Z</time>
      </trkpt>
      <trkpt lat="48.52809" lon="-3.39845">
        <ele>126</ele>
        <time>2023-10-30T18:29:45Z</time>
      </trkpt>
      <trkpt lat="48.52783" lon="-3.39788">
        <ele>121</ele>
        <time>2023-10-30T18:30:46Z</time>
      </trkpt>
      <trkpt lat="48.52667" lon="-3.39874">
        <ele>122</ele>
        <time>2023-10-30T18:33:38Z</time>
      </trkpt>
      <trkpt lat="48.52545" lon="-3.39995">
        <ele>124</ele>
        <time>2023-10-30T18:36:53Z</time>
      </trkpt>
      <trkpt lat="48.52473" lon="-3.40011">
        <ele>119</ele>
        <time>2023-10-30T18:38:30Z</time>
      </trkpt>
      <trkpt lat="48.52402" lon="-3.39995">
        <ele>112</ele>
        <time>2023-10-30T18:40:06Z</time>
      </trkpt>
      <trkpt lat="48.52331" lon="-3.40014">
        <ele>109</ele>
        <time>2023-10-30T18:41:42Z</time>
      </trkpt>
      <trkpt lat="48.52285" lon="-3.40063">
        <ele>116</ele>
        <time>2023-10-30T18:42:57Z</time>
      </trkpt>
      <trkpt lat="48.52244" lon="-3.40117">
        <ele>119</ele>
        <time>2023-10-30T18:44:10Z</time>
      </trkpt>
      <trkpt lat="48.522" lon="-3.40096">
        <ele>113</ele>
        <time>2023-10-30T18:45:11Z</time>
      </trkpt>
      <trkpt lat="48.52172" lon="-3.40107">
        <ele>111</ele>
        <time>2023-10-30T18:45:50Z</time>
      </trkpt>
      <trkpt lat="48.5213" lon="-3.40151">
        <ele>112</ele>
        <time>2023-10-30T18:46:58Z</time>
      </trkpt>
      <trkpt lat="48.52123" lon="-3.40137">
        <ele>110</ele>
        <time>2023-10-30T18:47:14Z</time>
      </trkpt>
      <trkpt lat="48.52086" lon="-3.4015">
        <ele>109</ele>
        <time>2023-10-30T18:48:04Z</time>
      </trkpt>
      <trkpt lat="48.5197" lon="-3.40245">
        <ele>110</ele>
        <time>2023-10-30T18:51:01Z</time>
      </trkpt>
      <trkpt lat="48.51944" lon="-3.40296">
        <ele>111</ele>
        <time>2023-10-30T18:51:57Z</time>
      </trkpt>
      <trkpt lat="48.51908" lon="-3.40332">
        <ele>111</ele>
        <time>2023-10-30T18:52:55Z</time>
      </trkpt>
      <trkpt lat="48.51889" lon="-3.40372">
        <ele>114</ele>
        <time>2023-10-30T18:53:39Z</time>
      </trkpt>
      <trkpt lat="48.51854" lon="-3.40431">
        <ele>113</ele>
        <time>2023-10-30T18:54:49Z</time>
      </trkpt>
      <trkpt lat="48.51885" lon="-3.4056">
        <ele>112</ele>
        <time>2023-10-30T18:56:50Z</time>
      </trkpt>
      <trkpt lat="48.51931" lon="-3.40627">
        <ele>116</ele>
        <time>2023-10-30T18:58:15Z</time>
      </trkpt>
      <trkpt lat="48.51993" lon="-3.40746">
        <ele>120</ele>
        <time>2023-10-30T19:00:29Z</time>
      </trkpt>
      <trkpt lat="48.5202" lon="-3.40847">
        <ele>120</ele>
        <time>2023-10-30T19:02:05Z</time>
      </trkpt>
      <trkpt lat="48.52033" lon="-3.40955">
        <ele>118</ele>
        <time>2023-10-30T19:03:42Z</time>
      </trkpt>
      <trkpt lat="48.5204" lon="-3.41064">
        <ele>116</ele>
        <time>2023-10-30T19:05:19Z</time>
      </trkpt>
      <trkpt lat="48.52045" lon="-3.41174">
        <ele>114</ele>
        <time>2023-10-30T19:06:57Z</time>
      </trkpt>
      <trkpt lat="48.52055" lon="-3.4123">
        <ele>115</ele>
        <time>2023-10-30T19:07:48Z</time>
      </trkpt>
      <trkpt lat="48.52114" lon="-3.41244">
        <ele>124</ele>
        <time>2023-10-30T19:09:08Z</time>
      </trkpt>
      <trkpt lat="48.52133" lon="-3.41259">
        <ele>127</ele>
        <time>2023-10-30T19:09:36Z</time>
      </trkpt>
      <trkpt lat="48.52122" lon="-3.41285">
        <ele>126</ele>
        <time>2023-10-30T19:10:03Z</time>
      </trkpt>
      <trkpt lat="48.52064" lon="-3.41297">
        <ele>117</ele>
        <time>2023-10-30T19:11:22Z</time>
      </trkpt>
      <trkpt lat="48.52049" lon="-3.41359">
        <ele>116</ele>
        <time>2023-10-30T19:12:20Z</time>
      </trkpt>
      <trkpt lat="48.52051" lon="-3.41473">
        <ele>121</ele>
        <time>2023-10-30T19:14:01Z</time>
      </trkpt>
      <trkpt lat="48.52025" lon="-3.41577">
        <ele>119</ele>
        <time>2023-10-30T19:15:39Z</time>
      </trkpt>
      <trkpt lat="48.52001" lon="-3.4168">
        <ele>122</ele>
        <time>2023-10-30T19:17:15Z</time>
      </trkpt>
      <trkpt lat="48.5196" lon="-3.41765">
        <ele>124</ele>
        <time>2023-10-30T19:18:48Z</time>
      </trkpt>
      <trkpt lat="48.51899" lon="-3.41821">
        <ele>119</ele>
        <time>2023-10-30T19:20:24Z</time>
      </trkpt>
      <trkpt lat="48.51834" lon="-3.4187">
        <ele>116</ele>
        <time>2023-10-30T19:22:01Z</time>
      </trkpt>
      <trkpt lat="48.51766" lon="-3.4189">
        <ele>112</ele>
        <time>2023-10-30T19:23:33Z</time>
      </trkpt>
      <trkpt lat="48.5165" lon="-3.41779">
        <ele>113</ele>
        <time>2023-10-30T19:26:36Z</time>
      </trkpt>
      <trkpt lat="48.51646" lon="-3.41774">
        <ele>113</ele>
        <time>2023-10-30T19:26:43Z</time>
      </trkpt>
      <trkpt lat="48.51604" lon="-3.41695">
        <ele>120</ele>
        <time>2023-10-30T19:28:13Z</time>
      </trkpt>
      <trkpt lat="48.51541" lon="-3.41634">
        <ele>120</ele>
        <time>2023-10-30T19:29:53Z</time>
      </trkpt>
      <trkpt lat="48.51511" lon="-3.41647">
        <ele>122</ele>
        <time>2023-10-30T19:30:34Z</time>
      </trkpt>
      <trkpt lat="48.51481" lon="-3.4175">
        <ele>130</ele>
        <time>2023-10-30T19:32:14Z</time>
      </trkpt>
      <trkpt lat="48.51446" lon="-3.41825">
        <ele>131</ele>
        <time>2023-10-30T19:33:35Z</time>
      </trkpt>
      <trkpt lat="48.51427" lon="-3.4181">
        <ele>128</ele>
        <time>2023-10-30T19:34:03Z</time>
      </trkpt>
      <trkpt lat="48.51355" lon="-3.41814">
        <ele>125</ele>
        <time>2023-10-30T19:35:40Z</time>
      </trkpt>
      <trkpt lat="48.5131" lon="-3.41783">
        <ele>124</ele>
        <time>2023-10-30T19:36:46Z</time>
      </trkpt>
      <trkpt lat="48.51315" lon="-3.41722">
        <ele>123</ele>
        <time>2023-10-30T19:37:40Z</time>
      </trkpt>
      <trkpt lat="48.51361" lon="-3.41639">
        <ele>126</ele>
        <time>2023-10-30T19:39:16Z</time>
      </trkpt>
      <trkpt lat="48.51412" lon="-3.41435">
        <ele>135</ele>
        <time>2023-10-30T19:42:28Z</time>
      </trkpt>
      <trkpt lat="48.51443" lon="-3.41289">
        <ele>139</ele>
        <time>2023-10-30T19:44:44Z</time>
      </trkpt>
      <trkpt lat="48.5141" lon="-3.41252">
        <ele>143</ele>
        <time>2023-10-30T19:45:39Z</time>
      </trkpt>
      <trkpt lat="48.51478" lon="-3.41117">
        <ele>145</ele>
        <time>2023-10-30T19:48:09Z</time>
      </trkpt>
      <trkpt lat="48.5152" lon="-3.41058">
        <ele>144</ele>
        <time>2023-10-30T19:49:25Z</time>
      </trkpt>
      <trkpt lat="48.51538" lon="-3.41009">
        <ele>145</ele>
        <time>2023-10-30T19:50:15Z</time>
      </trkpt>
      <trkpt lat="48.51593" lon="-3.4091">
        <ele>144</ele>
        <time>2023-10-30T19:52:09Z</time>
      </trkpt>
      <trkpt lat="48.51648" lon="-3.4096">
        <ele>138</ele>
        <time>2023-10-30T19:53:35Z</time>
      </trkpt>
      <trkpt lat="48.51663" lon="-3.4091">
        <ele>137</ele>
        <time>2023-10-30T19:54:23Z</time>
      </trkpt>
      <trkpt lat="48.51647" lon="-3.4088">
        <ele>139</ele>
        <time>2023-10-30T19:54:57Z</time>
      </trkpt>
      <trkpt lat="48.51646" lon="-3.40829">
        <ele>140</ele>
        <time>2023-10-30T19:55:42Z</time>
      </trkpt>
      <trkpt lat="48.5166" lon="-3.40814">
        <ele>139</ele>
        <time>2023-10-30T19:56:05Z</time>
      </trkpt>
      <trkpt lat="48.51677" lon="-3.4077">
        <ele>139</ele>
        <time>2023-10-30T19:56:50Z</time>
      </trkpt>
      <trkpt lat="48.51658" lon="-3.40794">
        <ele>140</ele>
        <time>2023-10-30T19:57:23Z</time>
      </trkpt>
      <trkpt lat="48.51643" lon="-3.40712">
        <ele>147</ele>
        <time>2023-10-30T19:58:39Z</time>
      </trkpt>
      <trkpt lat="48.51689" lon="-3.40638">
        <ele>146</ele>
        <time>2023-10-30T20:00:08Z</time>
      </trkpt>
      <trkpt lat="48.51716" lon="-3.40616">
        <ele>142</ele>
        <time>2023-10-30T20:00:49Z</time>
      </trkpt>
      <trkpt lat="48.51732" lon="-3.40551">
        <ele>143</ele>
        <time>2023-10-30T20:01:50Z</time>
      </trkpt>
      <trkpt lat="48.51739" lon="-3.40395">
        <ele>148</ele>
        <time>2023-10-30T20:04:09Z</time>
      </trkpt>
      <trkpt lat="48.51794" lon="-3.40242">
        <ele>141</ele>
        <time>2023-10-30T20:06:43Z</time>
      </trkpt>
      <trkpt lat="48.51819" lon="-3.40144">
        <ele>142</ele>
        <time>2023-10-30T20:08:15Z</time>
      </trkpt>
      <trkpt lat="48.51707" lon="-3.39996">
        <ele>157</ele>
        <time>2023-10-30T20:11:34Z</time>
      </trkpt>
      <trkpt lat="48.51659" lon="-3.39956">
        <ele>162</ele>
        <time>2023-10-30T20:12:47Z</time>
      </trkpt>
      <trkpt lat="48.51586" lon="-3.39926">
        <ele>165</ele>
        <time>2023-10-30T20:14:28Z</time>
      </trkpt>
      <trkpt lat="48.51583" lon="-3.39883">
        <ele>164</ele>
        <time>2023-10-30T20:15:06Z</time>
      </trkpt>
      <trkpt lat="48.51606" lon="-3.3978">
        <ele>165</ele>
        <time>2023-10-30T20:16:42Z</time>
      </trkpt>
      <trkpt lat="48.51589" lon="-3.39669">
        <ele>170</ele>
        <time>2023-10-30T20:18:23Z</time>
      </trkpt>
      <trkpt lat="48.51587" lon="-3.3955">
        <ele>170</ele>
        <time>2023-10-30T20:20:08Z</time>
      </trkpt>
      <trkpt lat="48.51621" lon="-3.39431">
        <ele>175</ele>
        <time>2023-10-30T20:22:03Z</time>
      </trkpt>
      <trkpt lat="48.51631" lon="-3.39343">
        <ele>180</ele>
        <time>2023-10-30T20:23:22Z</time>
      </trkpt>
      <trkpt lat="48.51688" lon="-3.39334">
        <ele>180</ele>
        <time>2023-10-30T20:24:38Z</time>
      </trkpt>
      <trkpt lat="48.51738" lon="-3.39264">
        <ele>182</ele>
        <time>2023-10-30T20:26:09Z</time>
      </trkpt>
      <trkpt lat="48.51739" lon="-3.39218">
        <ele>183</ele>
        <time>2023-10-30T20:26:50Z</time>
      </trkpt>
      <trkpt lat="48.51808" lon="-3.39184">
        <ele>184</ele>
        <time>2023-10-30T20:28:27Z</time>
      </trkpt>
      <trkpt lat="48.51882" lon="-3.39185">
        <ele>184</ele>
        <time>2023-10-30T20:30:06Z</time>
      </trkpt>
      <trkpt lat="48.51992" lon="-3.3925">
        <ele>169</ele>
        <time>2023-10-30T20:32:43Z</time>
      </trkpt>
      <trkpt lat="48.52072" lon="-3.39363">
        <ele>152</ele>
        <time>2023-10-30T20:35:09Z</time>
      </trkpt>
      <trkpt lat="48.52225" lon="-3.39561">
        <ele>122</ele>
        <time>2023-10-30T20:39:38Z</time>
      </trkpt>
      <trkpt lat="48.52232" lon="-3.39497">
        <ele>120</ele>
        <time>2023-10-30T20:40:36Z</time>
      </trkpt>
      <trkpt lat="48.52245" lon="-3.39464">
        <ele>116</ele>
        <time>2023-10-30T20:41:10Z</time>
      </trkpt>
      <trkpt lat="48.52198" lon="-3.39381">
        <ele>126</ele>
        <time>2023-10-30T20:42:46Z</time>
      </trkpt>
      <trkpt lat="48.52156" lon="-3.39265">
        <ele>127</ele>
        <time>2023-10-30T20:44:43Z</time>
      </trkpt>
      <trkpt lat="48.52123" lon="-3.39175">
        <ele>131</ele>
        <time>2023-10-30T20:46:14Z</time>
      </trkpt>
      <trkpt lat="48.5209" lon="-3.39033">
        <ele>134</ele>
        <time>2023-10-30T20:48:27Z</time>
      </trkpt>
      <trkpt lat="48.51941" lon="-3.38822">
        <ele>154</ele>
        <time>2023-10-30T20:53:00Z</time>
      </trkpt>
      <trkpt lat="48.51893" lon="-3.3878">
        <ele>156</ele>
        <time>2023-10-30T20:54:14Z</time>
      </trkpt>
      <trkpt lat="48.518" lon="-3.38766">
        <ele>161</ele>
        <time>2023-10-30T20:56:18Z</time>
      </trkpt>
      <trkpt lat="48.51742" lon="-3.38743">
        <ele>162</ele>
        <time>2023-10-30T20:57:38Z</time>
      </trkpt>
      <trkpt lat="48.51692" lon="-3.38693">
        <ele>164</ele>
        <time>2023-10-30T20:58:58Z</time>
      </trkpt>
      <trkpt lat="48.51637" lon="-3.38666">
        <ele>165</ele>
        <time>2023-10-30T21:00:16Z</time>
      </trkpt>
      <trkpt lat="48.51595" lon="-3.38466">
        <ele>160</ele>
        <time>2023-10-30T21:03:21Z</time>
      </trkpt>
      <trkpt lat="48.51548" lon="-3.38291">
        <ele>163</ele>
        <time>2023-10-30T21:06:08Z</time>
      </trkpt>
      <trkpt lat="48.51504" lon="-3.37985">
        <ele>174</ele>
        <time>2023-10-30T21:10:45Z</time>
      </trkpt>
      <trkpt lat="48.51439" lon="-3.37884">
        <ele>180</ele>
        <time>2023-10-30T21:12:49Z</time>
      </trkpt>
      <trkpt lat="48.5137" lon="-3.37846">
        <ele>184</ele>
        <time>2023-10-30T21:14:27Z</time>
      </trkpt>
      <trkpt lat="48.51432" lon="-3.37522">
        <ele>204</ele>
        <time>2023-10-30T21:19:25Z</time>
      </trkpt>
      <trkpt lat="48.51181" lon="-3.37403">
        <ele>221</ele>
        <time>2023-10-30T21:25:16Z</time>
      </trkpt>
      <trkpt lat="48.51152" lon="-3.37525">
        <ele>213</ele>
        <time>2023-10-30T21:27:11Z</time>
      </trkpt>
      <trkpt lat="48.51073" lon="-3.37477">
        <ele>216</ele>
        <time>2023-10-30T21:29:05Z</time>
      </trkpt>
      <trkpt lat="48.51058" lon="-3.37388">
        <ele>219</ele>
        <time>2023-10-30T21:30:26Z</time>
      </trkpt>
      <trkpt lat="48.51052" lon="-3.37213">
        <ele>229</ele>
        <time>2023-10-30T21:33:01Z</time>
      </trkpt>
      <trkpt lat="48.5107" lon="-3.37114">
        <ele>239</ele>
        <time>2023-10-30T21:34:32Z</time>
      </trkpt>
      <trkpt lat="48.5124" lon="-3.3647">
        <ele>261</ele>
        <time>2023-10-30T21:44:44Z</time>
      </trkpt>
      <trkpt lat="48.51245" lon="-3.35854">
        <ele>193</ele>
        <time>2023-10-30T21:53:49Z</time>
      </trkpt>
      <trkpt lat="48.51266" lon="-3.35758">
        <ele>184</ele>
        <time>2023-10-30T21:55:18Z</time>
      </trkpt>
      <trkpt lat="48.51247" lon="-3.35745">
        <ele>184</ele>
        <time>2023-10-30T21:55:46Z</time>
      </trkpt>
      <trkpt lat="48.51265" lon="-3.356">
        <ele>176</ele>
        <time>2023-10-30T21:57:57Z</time>
      </trkpt>
      <trkpt lat="48.5126" lon="-3.35501">
        <ele>167</ele>
        <time>2023-10-30T21:59:24Z</time>
      </trkpt>
      <trkpt lat="48.51249" lon="-3.35408">
        <ele>155</ele>
        <time>2023-10-30T22:00:48Z</time>
      </trkpt>
      <trkpt lat="48.51257" lon="-3.35338">
        <ele>149</ele>
        <time>2023-10-30T22:01:51Z</time>
      </trkpt>
      <trkpt lat="48.51274" lon="-3.35281">
        <ele>148</ele>
        <time>2023-10-30T22:02:46Z</time>
      </trkpt>
      <trkpt lat="48.51577" lon="-3.35366">
        <ele>142</ele>
        <time>2023-10-30T22:09:37Z</time>
      </trkpt>
      <trkpt lat="48.51861" lon="-3.35446">
        <ele>138</ele>
        <time>2023-10-30T22:16:03Z</time>
      </trkpt>
      <trkpt lat="48.51932" lon="-3.35472">
        <ele>137</ele>
        <time>2023-10-30T22:17:40Z</time>
      </trkpt>
      <trkpt lat="48.51914" lon="-3.35624">
        <ele>143</ele>
        <time>2023-10-30T22:19:57Z</time>
      </trkpt>
      <trkpt lat="48.51946" lon="-3.35712">
        <ele>145</ele>
        <time>2023-10-30T22:21:25Z</time>
      </trkpt>
      <trkpt lat="48.51959" lon="-3.35789">
        <ele>146</ele>
        <time>2023-10-30T22:22:36Z</time>
      </trkpt>
      <trkpt lat="48.51962" lon="-3.35891">
        <ele>150</ele>
        <time>2023-10-30T22:24:06Z</time>
      </trkpt>
      <trkpt lat="48.52102" lon="-3.3598">
        <ele>144</ele>
        <time>2023-10-30T22:27:29Z</time>
      </trkpt>
      <trkpt lat="48.52129" lon="-3.36001">
        <ele>142</ele>
        <time>2023-10-30T22:28:09Z</time>
      </trkpt>
      <trkpt lat="48.52181" lon="-3.35999">
        <ele>140</ele>
        <time>2023-10-30T22:29:19Z</time>
      </trkpt>
      <trkpt lat="48.5221" lon="-3.36026">
        <ele>140</ele>
        <time>2023-10-30T22:30:04Z</time>
      </trkpt>
      <trkpt lat="48.52225" lon="-3.36088">
        <ele>140</ele>
        <time>2023-10-30T22:31:02Z</time>
      </trkpt>
      <trkpt lat="48.52266" lon="-3.36199">
        <ele>146</ele>
        <time>2023-10-30T22:32:55Z</time>
      </trkpt>
      <trkpt lat="48.52283" lon="-3.36285">
        <ele>150</ele>
        <time>2023-10-30T22:34:14Z</time>
      </trkpt>
      <trkpt lat="48.52385" lon="-3.36579">
        <ele>159</ele>
        <time>2023-10-30T22:39:07Z</time>
      </trkpt>
      <trkpt lat="48.52398" lon="-3.36668">
        <ele>162</ele>
        <time>2023-10-30T22:40:28Z</time>
      </trkpt>
      <trkpt lat="48.52441" lon="-3.36752">
        <ele>161</ele>
        <time>2023-10-30T22:42:02Z</time>
      </trkpt>
      <trkpt lat="48.52463" lon="-3.36829">
        <ele>164</ele>
        <time>2023-10-30T22:43:16Z</time>
      </trkpt>
      <trkpt lat="48.52458" lon="-3.37027">
        <ele>178</ele>
        <time>2023-10-30T22:46:11Z</time>
      </trkpt>
      <trkpt lat="48.52461" lon="-3.37079">
        <ele>182</ele>
        <time>2023-10-30T22:46:57Z</time>
      </trkpt>
      <trkpt lat="48.52501" lon="-3.37167">
        <ele>188</ele>
        <time>2023-10-30T22:48:32Z</time>
      </trkpt>
      <trkpt lat="48.5255" lon="-3.3725">
        <ele>186</ele>
        <time>2023-10-30T22:50:10Z</time>
      </trkpt>
      <trkpt lat="48.52571" lon="-3.37356">
        <ele>187</ele>
        <time>2023-10-30T22:51:48Z</time>
      </trkpt>
      <trkpt lat="48.5259" lon="-3.37423">
        <ele>189</ele>
        <time>2023-10-30T22:52:52Z</time>
      </trkpt>
      <trkpt lat="48.52633" lon="-3.37448">
        <ele>185</ele>
        <time>2023-10-30T22:53:53Z</time>
      </trkpt>
      <trkpt lat="48.52709" lon="-3.37481">
        <ele>176</ele>
        <time>2023-10-30T22:55:39Z</time>
      </trkpt>
      <trkpt lat="48.52697" lon="-3.37683">
        <ele>185</ele>
        <time>2023-10-30T22:58:38Z</time>
      </trkpt>
      <trkpt lat="48.52787" lon="-3.37785">
        <ele>182</ele>
        <time>2023-10-30T23:01:08Z</time>
      </trkpt>
      <trkpt lat="48.52856" lon="-3.37873">
        <ele>179</ele>
        <time>2023-10-30T23:03:09Z</time>
      </trkpt>
      <trkpt lat="48.52884" lon="-3.37923">
        <ele>178</ele>
        <time>2023-10-30T23:04:07Z</time>
      </trkpt>
      <trkpt lat="48.52945" lon="-3.37945">
        <ele>176</ele>
        <time>2023-10-30T23:05:30Z</time>
      </trkpt>
      <trkpt lat="48.53007" lon="-3.38">
        <ele>176</ele>
        <time>2023-10-30T23:07:06Z</time>
      </trkpt>
      <trkpt lat="48.53039" lon="-3.3805">
        <ele>176</ele>
        <time>2023-10-30T23:08:08Z</time>
      </trkpt>
      <trkpt lat="48.53133" lon="-3.38106">
        <ele>177</ele>
        <time>2023-10-30T23:10:23Z</time>
      </trkpt>
      <trkpt lat="48.53181" lon="-3.38131">
        <ele>178</ele>
        <time>2023-10-30T23:11:30Z</time>
      </trkpt>
      <trkpt lat="48.53217" lon="-3.38165">
        <ele>181</ele>
        <time>2023-10-30T23:12:27Z</time>
      </trkpt>
      <trkpt lat="48.53216" lon="-3.38254">
        <ele>184</ele>
        <time>2023-10-30T23:13:46Z</time>
      </trkpt>
      <trkpt lat="48.53254" lon="-3.38359">
        <ele>181</ele>
        <time>2023-10-30T23:15:32Z</time>
      </trkpt>
      <trkpt lat="48.53315" lon="-3.38413">
        <ele>172</ele>
        <time>2023-10-30T23:17:06Z</time>
      </trkpt>
      <trkpt lat="48.53425" lon="-3.38556">
        <ele>156</ele>
        <time>2023-10-30T23:20:20Z</time>
      </trkpt>
      <trkpt lat="48.5357" lon="-3.38544">
        <ele>147</ele>
        <time>2023-10-30T23:23:33Z</time>
      </trkpt>
      <trkpt lat="48.53666" lon="-3.38514">
        <ele>146</ele>
        <time>2023-10-30T23:25:44Z</time>
      </trkpt>
      <trkpt lat="48.53744" lon="-3.38529">
        <ele>143</ele>
        <time>2023-10-30T23:27:29Z</time>
      </trkpt>
      <trkpt lat="48.53793" lon="-3.38521">
        <ele>138</ele>
        <time>2023-10-30T23:28:35Z</time>
      </trkpt>
      <trkpt lat="48.53837" lon="-3.38486">
        <ele>136</ele>
        <time>2023-10-30T23:29:41Z</time>
      </trkpt>
      <trkpt lat="48.53985" lon="-3.383">
        <ele>127</ele>
        <time>2023-10-30T23:33:58Z</time>
      </trkpt>
      <trkpt lat="48.54071" lon="-3.38364">
        <ele>114</ele>
        <time>2023-10-30T23:36:06Z</time>
      </trkpt>
      <trkpt lat="48.54092" lon="-3.38361">
        <ele>112</ele>
        <time>2023-10-30T23:36:34Z</time>
      </trkpt>
      <trkpt lat="48.54107" lon="-3.38292">
        <ele>110</ele>
        <time>2023-10-30T23:37:38Z</time>
      </trkpt>
      <trkpt lat="48.54129" lon="-3.38238">
        <ele>107</ele>
        <time>2023-10-30T23:38:34Z</time>
      </trkpt>
      <trkpt lat="48.54131" lon="-3.38322">
        <ele>107</ele>
        <time>2023-10-30T23:39:49Z</time>
      </trkpt>
      <trkpt lat="48.54064" lon="-3.38672">
        <ele>105</ele>
        <time>2023-10-30T23:45:11Z</time>
      </trkpt>
      <trkpt lat="48.5408" lon="-3.3886">
        <ele>109</ele>
        <time>2023-10-30T23:47:58Z</time>
      </trkpt>
      <trkpt lat="48.54098" lon="-3.38945">
        <ele>115</ele>
        <time>2023-10-30T23:49:17Z</time>
      </trkpt>
      <trkpt lat="48.54146" lon="-3.39053">
        <ele>109</ele>
        <time>2023-10-30T23:51:12Z</time>
      </trkpt>
      <trkpt lat="48.54158" lon="-3.39239">
        <ele>108</ele>
        <time>2023-10-30T23:53:57Z</time>
      </trkpt>
      <trkpt lat="48.54166" lon="-3.39293">
        <ele>108</ele>
        <time>2023-10-30T23:54:46Z</time>
      </trkpt>
      <trkpt lat="48.54183" lon="-3.39326">
        <ele>106</ele>
        <time>2023-10-30T23:55:23Z</time>
      </trkpt>
      <trkpt lat="48.54179" lon="-3.39376">
        <ele>108</ele>
        <time>2023-10-30T23:56:07Z</time>
      </trkpt>
      <trkpt lat="48.54213" lon="-3.39472">
        <ele>105</ele>
        <time>2023-10-30T23:57:44Z</time>
      </trkpt>
      <trkpt lat="48.54266" lon="-3.39538">
        <ele>99</ele>
        <time>2023-10-30T23:59:15Z</time>
      </trkpt>
      <trkpt lat="48.54274" lon="-3.39575">
        <ele>99</ele>
        <time>2023-10-30T23:59:50Z</time>
      </trkpt>
      <trkpt lat="48.54321" lon="-3.39585">
        <ele>97</ele>
        <time>2023-10-31T00:00:53Z</time>
      </trkpt>
      <trkpt lat="48.54374" lon="-3.39574">
        <ele>95</ele>
        <time>2023-10-31T00:02:04Z</time>
      </trkpt>
      <trkpt lat="48.54416" lon="-3.39618">
        <ele>94</ele>
        <time>2023-10-31T00:03:13Z</time>
      </trkpt>
      <trkpt lat="48.54453" lon="-3.39613">
        <ele>94</ele>
        <time>2023-10-31T00:04:02Z</time>
      </trkpt>
      <trkpt lat="48.5448" lon="-3.39587">
        <ele>94</ele>
        <time>2023-10-31T00:04:45Z</time>
      </trkpt>
      <trkpt lat="48.54527" lon="-3.39585">
        <ele>93</ele>
        <time>2023-10-31T00:05:48Z</time>
      </trkpt>
      <trkpt lat="48.54524" lon="-3.39567">
        <ele>93</ele>
        <time>2023-10-31T00:06:04Z</time>
      </trkpt>
      <trkpt lat="48.54581" lon="-3.39566">
        <ele>91</ele>
        <time>2023-10-31T00:07:20Z</time>
      </trkpt>
      <trkpt lat="48.54589" lon="-3.39584">
        <ele>90</ele>
        <time>2023-10-31T00:07:39Z</time>
      </trkpt>
    </trkseg>
  </trk>
  <trk>
    <name><![CDATA[BIET_LocEnvelCoatAnNozCourt-9342887]]></name>
    <extensions>
      <line xmlns="http://www.topografix.com/GPX/gpx_style/0/2">
        <color>00FF00</color>
        <width>4</width>
      </line>
    </extensions>
    <trkseg>
      <trkpt lat="48.54605" lon="-3.39591">
        <ele>91</ele>
        <time>2023-10-30T17:39:02Z</time>
      </trkpt>
      <trkpt lat="48.54578" lon="-3.39577">
        <ele>90</ele>
        <time>2023-10-30T17:39:40Z</time>
      </trkpt>
      <trkpt lat="48.54522" lon="-3.39568">
        <ele>93</ele>
        <time>2023-10-30T17:40:55Z</time>
      </trkpt>
      <trkpt lat="48.54471" lon="-3.39587">
        <ele>94</ele>
        <time>2023-10-30T17:42:05Z</time>
      </trkpt>
      <trkpt lat="48.54459" lon="-3.3961">
        <ele>94</ele>
        <time>2023-10-30T17:42:31Z</time>
      </trkpt>
      <trkpt lat="48.54415" lon="-3.39615">
        <ele>94</ele>
        <time>2023-10-30T17:43:30Z</time>
      </trkpt>
      <trkpt lat="48.54411" lon="-3.3976">
        <ele>95</ele>
        <time>2023-10-30T17:45:38Z</time>
      </trkpt>
      <trkpt lat="48.5432" lon="-3.39768">
        <ele>97</ele>
        <time>2023-10-30T17:47:40Z</time>
      </trkpt>
      <trkpt lat="48.54263" lon="-3.39799">
        <ele>101</ele>
        <time>2023-10-30T17:49:01Z</time>
      </trkpt>
      <trkpt lat="48.54212" lon="-3.39795">
        <ele>101</ele>
        <time>2023-10-30T17:50:09Z</time>
      </trkpt>
      <trkpt lat="48.54139" lon="-3.39794">
        <ele>103</ele>
        <time>2023-10-30T17:51:46Z</time>
      </trkpt>
      <trkpt lat="48.54066" lon="-3.39794">
        <ele>104</ele>
        <time>2023-10-30T17:53:24Z</time>
      </trkpt>
      <trkpt lat="48.53994" lon="-3.39786">
        <ele>102</ele>
        <time>2023-10-30T17:55:00Z</time>
      </trkpt>
      <trkpt lat="48.53932" lon="-3.39844">
        <ele>102</ele>
        <time>2023-10-30T17:56:37Z</time>
      </trkpt>
      <trkpt lat="48.53888" lon="-3.39931">
        <ele>113</ele>
        <time>2023-10-30T17:58:14Z</time>
      </trkpt>
      <trkpt lat="48.53819" lon="-3.39962">
        <ele>119</ele>
        <time>2023-10-30T17:59:50Z</time>
      </trkpt>
      <trkpt lat="48.53787" lon="-3.40061">
        <ele>124</ele>
        <time>2023-10-30T18:01:28Z</time>
      </trkpt>
      <trkpt lat="48.53716" lon="-3.40087">
        <ele>135</ele>
        <time>2023-10-30T18:03:05Z</time>
      </trkpt>
      <trkpt lat="48.53653" lon="-3.40153">
        <ele>141</ele>
        <time>2023-10-30T18:04:47Z</time>
      </trkpt>
      <trkpt lat="48.53603" lon="-3.40108">
        <ele>143</ele>
        <time>2023-10-30T18:06:05Z</time>
      </trkpt>
      <trkpt lat="48.53538" lon="-3.40156">
        <ele>147</ele>
        <time>2023-10-30T18:07:42Z</time>
      </trkpt>
      <trkpt lat="48.53483" lon="-3.40229">
        <ele>150</ele>
        <time>2023-10-30T18:09:19Z</time>
      </trkpt>
      <trkpt lat="48.53414" lon="-3.40196">
        <ele>151</ele>
        <time>2023-10-30T18:10:56Z</time>
      </trkpt>
      <trkpt lat="48.53346" lon="-3.40159">
        <ele>153</ele>
        <time>2023-10-30T18:12:32Z</time>
      </trkpt>
      <trkpt lat="48.53274" lon="-3.40149">
        <ele>156</ele>
        <time>2023-10-30T18:14:09Z</time>
      </trkpt>
      <trkpt lat="48.53211" lon="-3.40096">
        <ele>158</ele>
        <time>2023-10-30T18:15:45Z</time>
      </trkpt>
      <trkpt lat="48.53147" lon="-3.40042">
        <ele>158</ele>
        <time>2023-10-30T18:17:23Z</time>
      </trkpt>
      <trkpt lat="48.5308" lon="-3.4">
        <ele>154</ele>
        <time>2023-10-30T18:19:00Z</time>
      </trkpt>
      <trkpt lat="48.53012" lon="-3.39961">
        <ele>146</ele>
        <time>2023-10-30T18:20:37Z</time>
      </trkpt>
      <trkpt lat="48.52944" lon="-3.39928">
        <ele>141</ele>
        <time>2023-10-30T18:22:12Z</time>
      </trkpt>
      <trkpt lat="48.52877" lon="-3.39883">
        <ele>134</ele>
        <time>2023-10-30T18:23:50Z</time>
      </trkpt>
      <trkpt lat="48.52809" lon="-3.39845">
        <ele>126</ele>
        <time>2023-10-30T18:25:27Z</time>
      </trkpt>
      <trkpt lat="48.52736" lon="-3.39841">
        <ele>125</ele>
        <time>2023-10-30T18:27:04Z</time>
      </trkpt>
      <trkpt lat="48.52667" lon="-3.39874">
        <ele>122</ele>
        <time>2023-10-30T18:28:41Z</time>
      </trkpt>
      <trkpt lat="48.52608" lon="-3.39939">
        <ele>122</ele>
        <time>2023-10-30T18:30:18Z</time>
      </trkpt>
      <trkpt lat="48.52545" lon="-3.39995">
        <ele>124</ele>
        <time>2023-10-30T18:31:56Z</time>
      </trkpt>
      <trkpt lat="48.52473" lon="-3.40011">
        <ele>119</ele>
        <time>2023-10-30T18:33:33Z</time>
      </trkpt>
      <trkpt lat="48.52402" lon="-3.39995">
        <ele>112</ele>
        <time>2023-10-30T18:35:09Z</time>
      </trkpt>
      <trkpt lat="48.52331" lon="-3.40014">
        <ele>109</ele>
        <time>2023-10-30T18:36:45Z</time>
      </trkpt>
      <trkpt lat="48.52268" lon="-3.40069">
        <ele>116</ele>
        <time>2023-10-30T18:38:22Z</time>
      </trkpt>
      <trkpt lat="48.522" lon="-3.40105">
        <ele>113</ele>
        <time>2023-10-30T18:39:58Z</time>
      </trkpt>
      <trkpt lat="48.5213" lon="-3.40136">
        <ele>110</ele>
        <time>2023-10-30T18:41:36Z</time>
      </trkpt>
      <trkpt lat="48.52061" lon="-3.40167">
        <ele>109</ele>
        <time>2023-10-30T18:43:12Z</time>
      </trkpt>
      <trkpt lat="48.52" lon="-3.40227">
        <ele>110</ele>
        <time>2023-10-30T18:44:49Z</time>
      </trkpt>
      <trkpt lat="48.51944" lon="-3.40296">
        <ele>111</ele>
        <time>2023-10-30T18:46:25Z</time>
      </trkpt>
      <trkpt lat="48.51896" lon="-3.40378">
        <ele>114</ele>
        <time>2023-10-30T18:48:02Z</time>
      </trkpt>
      <trkpt lat="48.51869" lon="-3.40479">
        <ele>113</ele>
        <time>2023-10-30T18:49:38Z</time>
      </trkpt>
      <trkpt lat="48.51906" lon="-3.40573">
        <ele>113</ele>
        <time>2023-10-30T18:51:15Z</time>
      </trkpt>
      <trkpt lat="48.51993" lon="-3.40746">
        <ele>120</ele>
        <time>2023-10-30T18:54:27Z</time>
      </trkpt>
      <trkpt lat="48.5202" lon="-3.40847">
        <ele>120</ele>
        <time>2023-10-30T18:56:03Z</time>
      </trkpt>
      <trkpt lat="48.52033" lon="-3.40955">
        <ele>118</ele>
        <time>2023-10-30T18:57:40Z</time>
      </trkpt>
      <trkpt lat="48.5204" lon="-3.41064">
        <ele>116</ele>
        <time>2023-10-30T18:59:17Z</time>
      </trkpt>
      <trkpt lat="48.52045" lon="-3.41174">
        <ele>114</ele>
        <time>2023-10-30T19:00:54Z</time>
      </trkpt>
      <trkpt lat="48.52088" lon="-3.41263">
        <ele>120</ele>
        <time>2023-10-30T19:02:32Z</time>
      </trkpt>
      <trkpt lat="48.52058" lon="-3.41363">
        <ele>118</ele>
        <time>2023-10-30T19:04:09Z</time>
      </trkpt>
      <trkpt lat="48.52051" lon="-3.41473">
        <ele>121</ele>
        <time>2023-10-30T19:05:47Z</time>
      </trkpt>
      <trkpt lat="48.52025" lon="-3.41577">
        <ele>119</ele>
        <time>2023-10-30T19:07:25Z</time>
      </trkpt>
      <trkpt lat="48.52001" lon="-3.4168">
        <ele>122</ele>
        <time>2023-10-30T19:09:01Z</time>
      </trkpt>
      <trkpt lat="48.51965" lon="-3.41774">
        <ele>126</ele>
        <time>2023-10-30T19:10:37Z</time>
      </trkpt>
      <trkpt lat="48.51899" lon="-3.41821">
        <ele>119</ele>
        <time>2023-10-30T19:12:15Z</time>
      </trkpt>
      <trkpt lat="48.51834" lon="-3.4187">
        <ele>116</ele>
        <time>2023-10-30T19:13:52Z</time>
      </trkpt>
      <trkpt lat="48.51761" lon="-3.41883">
        <ele>111</ele>
        <time>2023-10-30T19:15:30Z</time>
      </trkpt>
      <trkpt lat="48.51699" lon="-3.41828">
        <ele>109</ele>
        <time>2023-10-30T19:17:06Z</time>
      </trkpt>
      <trkpt lat="48.51641" lon="-3.41763">
        <ele>115</ele>
        <time>2023-10-30T19:18:42Z</time>
      </trkpt>
      <trkpt lat="48.51587" lon="-3.41688">
        <ele>121</ele>
        <time>2023-10-30T19:20:20Z</time>
      </trkpt>
      <trkpt lat="48.51519" lon="-3.41654">
        <ele>122</ele>
        <time>2023-10-30T19:21:56Z</time>
      </trkpt>
      <trkpt lat="48.51489" lon="-3.41753">
        <ele>132</ele>
        <time>2023-10-30T19:23:32Z</time>
      </trkpt>
      <trkpt lat="48.51427" lon="-3.4181">
        <ele>128</ele>
        <time>2023-10-30T19:25:09Z</time>
      </trkpt>
      <trkpt lat="48.51355" lon="-3.41814">
        <ele>125</ele>
        <time>2023-10-30T19:26:45Z</time>
      </trkpt>
      <trkpt lat="48.51315" lon="-3.41722">
        <ele>123</ele>
        <time>2023-10-30T19:28:22Z</time>
      </trkpt>
      <trkpt lat="48.51361" lon="-3.41639">
        <ele>126</ele>
        <time>2023-10-30T19:29:58Z</time>
      </trkpt>
      <trkpt lat="48.51393" lon="-3.4154">
        <ele>131</ele>
        <time>2023-10-30T19:31:35Z</time>
      </trkpt>
      <trkpt lat="48.51412" lon="-3.41435">
        <ele>135</ele>
        <time>2023-10-30T19:33:11Z</time>
      </trkpt>
      <trkpt lat="48.51437" lon="-3.41333">
        <ele>137</ele>
        <time>2023-10-30T19:34:47Z</time>
      </trkpt>
      <trkpt lat="48.5143" lon="-3.41224">
        <ele>143</ele>
        <time>2023-10-30T19:36:24Z</time>
      </trkpt>
      <trkpt lat="48.5148" lon="-3.41144">
        <ele>144</ele>
        <time>2023-10-30T19:38:02Z</time>
      </trkpt>
      <trkpt lat="48.51525" lon="-3.4106">
        <ele>144</ele>
        <time>2023-10-30T19:39:37Z</time>
      </trkpt>
      <trkpt lat="48.51565" lon="-3.40969">
        <ele>144</ele>
        <time>2023-10-30T19:41:14Z</time>
      </trkpt>
      <trkpt lat="48.51635" lon="-3.40939">
        <ele>140</ele>
        <time>2023-10-30T19:42:51Z</time>
      </trkpt>
      <trkpt lat="48.51651" lon="-3.40832">
        <ele>139</ele>
        <time>2023-10-30T19:44:28Z</time>
      </trkpt>
      <trkpt lat="48.51644" lon="-3.40723">
        <ele>146</ele>
        <time>2023-10-30T19:46:04Z</time>
      </trkpt>
      <trkpt lat="48.51689" lon="-3.40638">
        <ele>146</ele>
        <time>2023-10-30T19:47:41Z</time>
      </trkpt>
      <trkpt lat="48.51732" lon="-3.40551">
        <ele>143</ele>
        <time>2023-10-30T19:49:17Z</time>
      </trkpt>
      <trkpt lat="48.51744" lon="-3.40443">
        <ele>146</ele>
        <time>2023-10-30T19:50:53Z</time>
      </trkpt>
      <trkpt lat="48.51756" lon="-3.40334">
        <ele>147</ele>
        <time>2023-10-30T19:52:31Z</time>
      </trkpt>
      <trkpt lat="48.51794" lon="-3.40242">
        <ele>141</ele>
        <time>2023-10-30T19:54:07Z</time>
      </trkpt>
      <trkpt lat="48.51817" lon="-3.40138">
        <ele>143</ele>
        <time>2023-10-30T19:55:44Z</time>
      </trkpt>
      <trkpt lat="48.5176" lon="-3.40071">
        <ele>153</ele>
        <time>2023-10-30T19:57:20Z</time>
      </trkpt>
      <trkpt lat="48.51707" lon="-3.39996">
        <ele>157</ele>
        <time>2023-10-30T19:58:57Z</time>
      </trkpt>
      <trkpt lat="48.51645" lon="-3.39938">
        <ele>162</ele>
        <time>2023-10-30T20:00:34Z</time>
      </trkpt>
      <trkpt lat="48.51583" lon="-3.39883">
        <ele>164</ele>
        <time>2023-10-30T20:02:10Z</time>
      </trkpt>
      <trkpt lat="48.51599" lon="-3.39713">
        <ele>168</ele>
        <time>2023-10-30T20:04:42Z</time>
      </trkpt>
      <trkpt lat="48.5168" lon="-3.39701">
        <ele>165</ele>
        <time>2023-10-30T20:06:31Z</time>
      </trkpt>
      <trkpt lat="48.51698" lon="-3.3986">
        <ele>158</ele>
        <time>2023-10-30T20:08:53Z</time>
      </trkpt>
      <trkpt lat="48.51914" lon="-3.40113">
        <ele>113</ele>
        <time>2023-10-30T20:14:58Z</time>
      </trkpt>
      <trkpt lat="48.51914" lon="-3.40153">
        <ele>107</ele>
        <time>2023-10-30T20:15:34Z</time>
      </trkpt>
      <trkpt lat="48.51972" lon="-3.4024">
        <ele>110</ele>
        <time>2023-10-30T20:17:23Z</time>
      </trkpt>
      <trkpt lat="48.52122" lon="-3.40113">
        <ele>108</ele>
        <time>2023-10-30T20:21:12Z</time>
      </trkpt>
      <trkpt lat="48.52166" lon="-3.40291">
        <ele>123</ele>
        <time>2023-10-30T20:24:00Z</time>
      </trkpt>
      <trkpt lat="48.52218" lon="-3.40355">
        <ele>133</ele>
        <time>2023-10-30T20:25:30Z</time>
      </trkpt>
      <trkpt lat="48.52208" lon="-3.40398">
        <ele>135</ele>
        <time>2023-10-30T20:26:10Z</time>
      </trkpt>
      <trkpt lat="48.5216" lon="-3.40391">
        <ele>131</ele>
        <time>2023-10-30T20:27:14Z</time>
      </trkpt>
      <trkpt lat="48.52197" lon="-3.40974">
        <ele>154</ele>
        <time>2023-10-30T20:35:52Z</time>
      </trkpt>
      <trkpt lat="48.52255" lon="-3.40994">
        <ele>159</ele>
        <time>2023-10-30T20:37:11Z</time>
      </trkpt>
      <trkpt lat="48.52267" lon="-3.40973">
        <ele>160</ele>
        <time>2023-10-30T20:37:36Z</time>
      </trkpt>
      <trkpt lat="48.52282" lon="-3.40952">
        <ele>160</ele>
        <time>2023-10-30T20:38:03Z</time>
      </trkpt>
      <trkpt lat="48.52365" lon="-3.41056">
        <ele>155</ele>
        <time>2023-10-30T20:40:27Z</time>
      </trkpt>
      <trkpt lat="48.52406" lon="-3.41057">
        <ele>156</ele>
        <time>2023-10-30T20:41:22Z</time>
      </trkpt>
      <trkpt lat="48.52595" lon="-3.41106">
        <ele>163</ele>
        <time>2023-10-30T20:45:38Z</time>
      </trkpt>
      <trkpt lat="48.52609" lon="-3.41274">
        <ele>161</ele>
        <time>2023-10-30T20:48:07Z</time>
      </trkpt>
      <trkpt lat="48.52557" lon="-3.41488">
        <ele>158</ele>
        <time>2023-10-30T20:51:29Z</time>
      </trkpt>
      <trkpt lat="48.52602" lon="-3.41554">
        <ele>161</ele>
        <time>2023-10-30T20:52:53Z</time>
      </trkpt>
      <trkpt lat="48.52987" lon="-3.41676">
        <ele>173</ele>
        <time>2023-10-30T21:01:37Z</time>
      </trkpt>
      <trkpt lat="48.53068" lon="-3.41344">
        <ele>171</ele>
        <time>2023-10-30T21:06:50Z</time>
      </trkpt>
      <trkpt lat="48.53054" lon="-3.41207">
        <ele>170</ele>
        <time>2023-10-30T21:08:53Z</time>
      </trkpt>
      <trkpt lat="48.53306" lon="-3.40572">
        <ele>163</ele>
        <time>2023-10-30T21:19:47Z</time>
      </trkpt>
      <trkpt lat="48.53489" lon="-3.40261">
        <ele>150</ele>
        <time>2023-10-30T21:25:54Z</time>
      </trkpt>
      <trkpt lat="48.53585" lon="-3.40082">
        <ele>144</ele>
        <time>2023-10-30T21:29:18Z</time>
      </trkpt>
      <trkpt lat="48.5366" lon="-3.40176">
        <ele>141</ele>
        <time>2023-10-30T21:31:28Z</time>
      </trkpt>
      <trkpt lat="48.53719" lon="-3.40065">
        <ele>134</ele>
        <time>2023-10-30T21:33:34Z</time>
      </trkpt>
      <trkpt lat="48.53769" lon="-3.40123">
        <ele>128</ele>
        <time>2023-10-30T21:34:58Z</time>
      </trkpt>
      <trkpt lat="48.53791" lon="-3.39973">
        <ele>122</ele>
        <time>2023-10-30T21:37:14Z</time>
      </trkpt>
      <trkpt lat="48.53857" lon="-3.39971">
        <ele>116</ele>
        <time>2023-10-30T21:38:42Z</time>
      </trkpt>
      <trkpt lat="48.53969" lon="-3.39792">
        <ele>102</ele>
        <time>2023-10-30T21:42:19Z</time>
      </trkpt>
      <trkpt lat="48.54268" lon="-3.39799">
        <ele>101</ele>
        <time>2023-10-30T21:48:59Z</time>
      </trkpt>
      <trkpt lat="48.54324" lon="-3.39762">
        <ele>97</ele>
        <time>2023-10-30T21:50:20Z</time>
      </trkpt>
      <trkpt lat="48.5429" lon="-3.3969">
        <ele>96</ele>
        <time>2023-10-30T21:51:38Z</time>
      </trkpt>
      <trkpt lat="48.54276" lon="-3.39572">
        <ele>99</ele>
        <time>2023-10-30T21:53:24Z</time>
      </trkpt>
      <trkpt lat="48.54371" lon="-3.39576">
        <ele>95</ele>
        <time>2023-10-30T21:55:31Z</time>
      </trkpt>
      <trkpt lat="48.54416" lon="-3.39618">
        <ele>94</ele>
        <time>2023-10-30T21:56:42Z</time>
      </trkpt>
      <trkpt lat="48.54465" lon="-3.39602">
        <ele>94</ele>
        <time>2023-10-30T21:57:48Z</time>
      </trkpt>
      <trkpt lat="48.54468" lon="-3.39581">
        <ele>94</ele>
        <time>2023-10-30T21:58:07Z</time>
      </trkpt>
      <trkpt lat="48.54521" lon="-3.39577">
        <ele>93</ele>
        <time>2023-10-30T21:59:18Z</time>
      </trkpt>
      <trkpt lat="48.54566" lon="-3.39559">
        <ele>91</ele>
        <time>2023-10-30T22:00:20Z</time>
      </trkpt>
      <trkpt lat="48.54605" lon="-3.39575">
        <ele>91</ele>
        <time>2023-10-30T22:01:14Z</time>
      </trkpt>
    </trkseg>
  </trk>
</gpx>